San Francisco, CA (94104)

11:26 PM PDT on September 01, 2015 (GMT -0700)
Financial District | | Change Station
CLOSE
Current Station
Personal Weather Station
Location: San Francisco, CA
Elevation: 100 ft
Nearby Weather Stations

Elev 100 ft 37.79 °N, 122.40 °W | Updated 1 minute ago

Partly Cloudy
Partly Cloudy
62.8 °F
Feels Like 62.8 °F
N
1.6
Wind Variable Wind from NNW
Gusts 3.4 mph

Today
High -- | Low -- °F
--% Chance of Precip.
Yesterday
High -- | Low -- °F
Precip. -- in
6:39 AM 7:39 PM
Waning Gibbous, 83% visible
Pressure 29.92 in
Visibility 10.0 miles
Clouds Few 1000 ft
Mostly Cloudy 1900 ft
Dew Point 57 °F
Humidity 81%
Rainfall 0.00 in
Snow Depth Not available.
UV 0.0 out of 12
Pollen 6.90 out of 12
Air Quality Not available.
Flu Activity Not available.
METAR KOAK 020553Z 25010KT 10SM FEW010 BKN019 18/13 A2993 RMK AO2 SLP132 T01780128 10233 20178 50008
Pressure 29.92 in
Visibility 10.0 miles
Clouds Few 1000 ft
Mostly Cloudy 1900 ft
Dew Point 57 °F
Humidity 81%
Rainfall 0.00 in
Snow Depth Not available.
UV 0.0 out of 12
Pollen 6.90 out of 12
Air Quality Not available.
Flu Activity Not available.
METAR KOAK 020553Z 25010KT 10SM FEW010 BKN019 18/13 A2993 RMK AO2 SLP132 T01780128 10233 20178 50008

10-Day Weather Forecast

×

Almanac

Astronomy

Sep. 01, 2015 Rise Set
Actual Time
Civil Twilight
Nautical Twilight
Astronomical Twilight
Moon
Length of Visible Light
Length of Day
Tomorrow will be .
, % of the Moon is Illuminated

Today's Extremes

State Highs State Lows

Community

WunderPhotos

Upload Photos

1,851,709 photos uploaded!

WunderBlogs® & News

Nearby

Air Quality

  Air Quality AQ Index Pollutant
Not available.

Snow Depth

Station Depth Elevation

Earthquake Activity

City Distance Mag. Time & Date
Minimum magnitude displayed is 2.5.

Coastal Water Temperatures

Place Temperature

Stations

Nearby Weather Stations

Station Location Temp. Windchill Dew Point Humidity Wind Precip. Elev Updated Type